Time;durP1;ratioP1;P1;durP2;ratioP2;P2;SDS_P1;SDS_P2;PMS_P1;PMS_P2;Temp;Humidity;BMP_temperature;BMP_pressure;BME280_temperature;BME280_humidity;BME280_pressure;Samples;Min_cycle;Max_cycle;Signal;HPM_P1;HPM_P2
2024/02/15 00:02:15;;;;;;;1999.90;999.90;;;12.90;99.90;;;;;;5107715;28;20045;-84
2024/02/15 00:04:42;;;;;;;1999.90;999.90;;;12.90;99.90;;;;;;5096318;28;20031;-84
2024/02/15 00:07:08;;;;;;;1999.90;999.90;;;12.90;99.90;;;;;;5096274;28;20040;-82
2024/02/15 00:09:34;;;;;;;1999.90;999.90;;;12.90;99.90;;;;;;5114612;28;20030;-82
2024/02/15 00:11:59;;;;;;;1999.90;999.90;;;12.90;99.90;;;;;;5114933;28;20374;-82
2024/02/15 00:14:27;;;;;;;1999.90;999.90;;;12.90;99.90;;;;;;5113668;28;20015;-82
2024/02/15 00:16:53;;;;;;;1999.90;999.90;;;12.90;99.90;;;;;;5096131;28;20115;-84
2024/02/15 00:19:19;;;;;;;1999.90;999.90;;;12.80;99.90;;;;;;5096045;28;20059;-82
2024/02/15 00:21:44;;;;;;;1999.90;999.90;;;12.70;99.90;;;;;;5096224;28;20024;-82
2024/02/15 00:24:10;;;;;;;1999.90;999.90;;;12.80;99.90;;;;;;5095932;28;20110;-83
2024/02/15 00:26:36;;;;;;;1999.90;999.90;;;12.70;99.90;;;;;;5108679;27;20047;-83
2024/02/15 00:29:02;;;;;;;1999.90;999.90;;;12.70;99.90;;;;;;5116367;27;20034;-82
2024/02/15 00:31:27;;;;;;;1999.90;999.90;;;12.70;99.90;;;;;;5116502;27;20023;-82
2024/02/15 00:33:53;;;;;;;1999.90;999.90;;;12.70;99.90;;;;;;5116441;27;20050;-82
2024/02/15 00:36:19;;;;;;;1999.90;999.90;;;12.70;99.90;;;;;;5116238;27;20106;-84
2024/02/15 00:38:45;;;;;;;1999.90;999.90;;;12.70;99.90;;;;;;5134641;27;20051;-84
2024/02/15 00:41:11;;;;;;;1999.90;999.90;;;12.70;99.90;;;;;;5134697;27;20098;-82
2024/02/15 00:43:36;;;;;;;1999.90;999.90;;;12.80;99.90;;;;;;5116146;27;20023;-82
2024/02/15 00:46:02;;;;;;;1999.90;999.90;;;12.80;99.90;;;;;;5116050;27;20160;-85
2024/02/15 00:48:29;;;;;;;1999.90;999.90;;;12.70;99.90;;;;;;5115927;27;20470;-82
2024/02/15 00:50:56;;;;;;;1999.90;999.90;;;12.60;99.90;;;;;;5134495;27;20087;-82
2024/02/15 00:53:21;;;;;;;1999.90;999.90;;;12.60;99.90;;;;;;5115597;27;20042;-82
2024/02/15 00:55:47;;;;;;;1999.90;999.90;;;12.40;99.90;;;;;;5115809;27;20050;-82
2024/02/15 00:58:13;;;;;;;1999.90;999.90;;;12.40;99.90;;;;;;5115850;27;20390;-82
2024/02/15 01:00:38;;;;;;;1999.90;999.90;;;12.40;99.90;;;;;;5115825;27;20034;-82
2024/02/15 01:03:04;;;;;;;1999.90;999.90;;;12.30;99.90;;;;;;5115198;27;20034;-84
2024/02/15 01:05:30;;;;;;;1999.90;999.90;;;12.20;99.90;;;;;;5115595;27;20124;-82
2024/02/15 01:07:56;;;;;;;1999.90;999.90;;;12.10;99.90;;;;;;5116158;27;20015;-84
2024/02/15 01:10:24;;;;;;;1999.90;999.90;;;12.10;99.90;;;;;;5115991;27;20129;-82
2024/02/15 01:12:50;;;;;;;1999.90;999.90;;;12.00;99.90;;;;;;5134185;27;20019;-84
2024/02/15 01:15:18;;;;;;;1999.90;999.90;;;12.00;99.90;;;;;;5134585;27;20537;-82
2024/02/15 01:17:44;;;;;;;1999.90;999.90;;;12.00;99.90;;;;;;5134394;27;20022;-82
2024/02/15 01:20:10;;;;;;;1999.90;999.90;;;12.00;99.90;;;;;;5115632;28;20030;-82
2024/02/15 01:22:36;;;;;;;1999.90;999.90;;;12.00;99.90;;;;;;5158097;28;20033;-82
2024/02/15 01:25:02;;;;;;;1999.90;999.90;;;12.00;99.90;;;;;;5142472;28;20007;-82
2024/02/15 01:27:30;;;;;;;1999.90;999.90;;;12.00;99.90;;;;;;5142596;28;20011;-84
2024/02/15 01:29:57;;;;;;;1999.90;999.90;;;12.00;99.90;;;;;;5142723;28;20014;-81
2024/02/15 01:32:23;;;;;;;1999.90;999.90;;;12.10;99.90;;;;;;5160236;28;20015;-82
2024/02/15 01:34:51;;;;;;;1999.90;999.90;;;12.10;99.90;;;;;;5153251;28;20075;-82
2024/02/15 01:37:17;;;;;;;1999.90;999.90;;;12.10;99.90;;;;;;5115442;28;20020;-82
2024/02/15 01:39:42;;;;;;;1999.90;999.90;;;12.20;99.90;;;;;;5115343;28;20030;-82
2024/02/15 01:42:08;;;;;;;1999.90;999.90;;;12.30;99.90;;;;;;5116908;28;20168;-84
2024/02/15 01:44:36;;;;;;;1999.90;999.90;;;12.30;99.90;;;;;;5115486;28;20039;-84
2024/02/15 01:47:04;;;;;;;1999.90;999.90;;;12.30;99.90;;;;;;5133900;28;20026;-82
2024/02/15 01:49:30;;;;;;;1999.90;999.90;;;12.30;99.90;;;;;;5133863;28;20035;-82
2024/02/15 01:51:57;;;;;;;1999.90;999.90;;;12.30;99.90;;;;;;5115244;28;20034;-82
2024/02/15 01:54:23;;;;;;;1999.90;999.90;;;12.30;99.90;;;;;;5115348;28;20054;-82
2024/02/15 01:56:49;;;;;;;1999.90;999.90;;;12.30;99.90;;;;;;5115194;28;20631;-84
2024/02/15 01:59:16;;;;;;;1999.90;999.90;;;12.30;99.90;;;;;;5115094;28;20103;-84
2024/02/15 02:01:42;;;;;;;1999.90;999.90;;;12.30;99.90;;;;;;5111448;28;20541;-82
2024/02/15 02:04:09;;;;;;;1999.90;999.90;;;12.20;99.90;;;;;;5094684;28;20405;-82
2024/02/15 02:06:36;;;;;;;1999.90;999.90;;;12.30;99.90;;;;;;5094519;28;20079;-82
2024/02/15 02:09:03;;;;;;;1999.90;999.90;;;12.40;99.90;;;;;;5094598;28;20556;-82
2024/02/15 02:11:29;;;;;;;1999.90;999.90;;;12.50;99.90;;;;;;5094878;28;20043;-85
2024/02/15 02:13:55;;;;;;;1999.90;999.90;;;12.60;99.90;;;;;;5094735;28;20555;-82
2024/02/15 02:16:28;;;;;;;1999.90;999.90;;;12.60;99.90;;;;;;5094891;28;20122;-82
2024/02/15 02:18:57;;;;;;;;;;;12.60;99.90;;;;;;5113149;28;20486;-82
2024/02/15 02:21:27;;;;;;;1999.90;999.90;;;12.60;99.90;;;;;;5113029;28;19942;-82
2024/02/15 02:23:56;;;;;;;1999.90;999.90;;;12.50;99.90;;;;;;5106739;28;20119;-82
2024/02/15 02:26:22;;;;;;;1999.90;999.90;;;12.50;99.90;;;;;;5104299;28;20034;-82
2024/02/15 02:28:49;;;;;;;1999.90;999.90;;;12.50;99.90;;;;;;5094512;28;20027;-82
2024/02/15 02:31:14;;;;;;;1999.90;999.90;;;12.40;99.90;;;;;;5094525;28;20026;-84
2024/02/15 02:33:41;;;;;;;1999.90;999.90;;;12.40;99.90;;;;;;5094429;28;20028;-82
2024/02/15 02:36:09;;;;;;;1999.90;999.90;;;12.40;99.90;;;;;;5094496;28;20051;-84
2024/02/15 02:38:37;;;;;;;1999.90;999.90;;;12.50;99.90;;;;;;5096881;28;20493;-84
2024/02/15 02:41:04;;;;;;;1999.90;999.90;;;12.50;99.90;;;;;;5098742;28;20023;-84
2024/02/15 02:43:29;;;;;;;1999.90;999.90;;;12.50;99.90;;;;;;5116494;28;20085;-82
2024/02/15 02:45:55;;;;;;;1999.90;999.90;;;12.50;99.90;;;;;;5097972;28;20015;-84
2024/02/15 02:48:21;;;;;;;1999.90;999.90;;;12.40;99.90;;;;;;5116863;28;20028;-82
2024/02/15 02:50:50;;;;;;;1999.90;999.90;;;12.40;99.90;;;;;;5116147;28;20024;-85
2024/02/15 02:53:15;;;;;;;1999.90;999.90;;;12.50;99.90;;;;;;5116055;28;20070;-84
2024/02/15 02:55:42;;;;;;;1999.90;999.90;;;12.50;99.90;;;;;;5116433;28;20047;-82
2024/02/15 02:58:08;;;;;;;1999.90;999.90;;;12.50;99.90;;;;;;5116033;28;20020;-82
2024/02/15 03:00:34;;;;;;;1999.90;999.90;;;12.40;99.90;;;;;;5115948;28;20046;-82
2024/02/15 03:02:59;;;;;;;1999.90;999.90;;;12.40;99.90;;;;;;5097206;28;20038;-82
2024/02/15 03:05:26;;;;;;;1999.90;999.90;;;12.40;99.90;;;;;;5097391;28;20051;-82
2024/02/15 03:07:51;;;;;;;1999.90;999.90;;;12.40;99.90;;;;;;5097468;28;20035;-82
2024/02/15 03:10:18;;;;;;;1999.90;999.90;;;12.40;99.90;;;;;;5096551;28;20024;-82
2024/02/15 03:12:47;;;;;;;1999.90;999.90;;;12.50;99.90;;;;;;5115839;28;20020;-82
2024/02/15 03:15:13;;;;;;;1999.90;999.90;;;12.50;99.90;;;;;;5097863;28;20020;-84
2024/02/15 03:17:44;;;;;;;1999.90;999.90;;;12.40;99.90;;;;;;5097252;28;20485;-82
2024/02/15 03:20:26;;;;;;;1999.90;999.90;;;12.50;99.90;;;;;;5097392;28;20057;-82
2024/02/15 03:22:58;;;;;;;1999.90;999.90;;;12.50;99.90;;;;;;5115628;28;20027;-82
2024/02/15 03:25:25;;;;;;;1999.90;999.90;;;12.50;99.90;;;;;;5096946;28;20027;-82
2024/02/15 03:27:56;;;;;;;1999.90;999.90;;;12.50;99.90;;;;;;5097104;28;20042;-82
2024/02/15 03:30:26;;;;;;;1999.90;999.90;;;12.50;99.90;;;;;;5097174;28;20449;-84
2024/02/15 03:32:53;;;;;;;1999.90;999.90;;;12.50;99.90;;;;;;5115510;28;20032;-84
2024/02/15 03:35:24;;;;;;;1999.90;999.90;;;12.50;99.90;;;;;;5097014;28;20027;-82
2024/02/15 03:37:52;;;;;;;1999.90;999.90;;;12.40;99.90;;;;;;5096946;28;20027;-84
2024/02/15 03:40:19;;;;;;;1999.90;999.90;;;12.40;99.90;;;;;;5097239;28;20016;-82
2024/02/15 03:42:46;;;;;;;1999.90;999.90;;;12.30;99.90;;;;;;5097497;28;20101;-84
2024/02/15 03:45:12;;;;;;;1999.90;999.90;;;12.20;99.90;;;;;;5096887;28;20482;-82
2024/02/15 03:47:38;;;;;;;1999.90;999.90;;;12.20;99.90;;;;;;5097057;28;20032;-82
2024/02/15 03:50:11;;;;;;;1999.90;999.90;;;12.20;99.90;;;;;;5114877;28;20092;-84
2024/02/15 03:52:38;;;;;;;1999.90;999.90;;;12.20;99.90;;;;;;5096980;28;20493;-84
2024/02/15 03:55:04;;;;;;;1999.90;999.90;;;12.10;99.90;;;;;;5115512;28;20023;-82
2024/02/15 03:57:30;;;;;;;1999.90;999.90;;;12.20;99.90;;;;;;5097857;28;20077;-84
2024/02/15 03:59:58;;;;;;;1999.90;999.90;;;12.10;99.90;;;;;;5096818;28;20032;-82
2024/02/15 04:02:29;;;;;;;1999.90;999.90;;;12.10;99.90;;;;;;5095968;28;20024;-82
2024/02/15 04:04:55;;;;;;;1999.90;999.90;;;12.10;99.90;;;;;;5114422;28;20032;-85
2024/02/15 04:07:22;;;;;;;1999.90;999.90;;;12.00;99.90;;;;;;5096850;28;20032;-84
2024/02/15 04:09:48;;;;;;;1999.90;999.90;;;12.00;99.90;;;;;;5114749;28;20023;-84
2024/02/15 04:12:14;;;;;;;1999.90;999.90;;;11.90;99.90;;;;;;5096330;28;20028;-82
2024/02/15 04:14:45;;;;;;;1999.90;999.90;;;11.90;99.90;;;;;;5096159;28;20030;-82
2024/02/15 04:17:13;;;;;;;1999.90;999.90;;;11.90;99.90;;;;;;5096391;28;20111;-84
2024/02/15 04:19:40;;;;;;;1999.90;999.90;;;11.90;99.90;;;;;;5114700;28;20016;-85
2024/02/15 04:22:07;;;;;;;1999.90;999.90;;;11.90;99.90;;;;;;5114452;28;20031;-82
2024/02/15 04:24:39;;;;;;;1999.90;999.90;;;11.90;99.90;;;;;;5095997;28;20510;-82
2024/02/15 04:27:12;;;;;;;1999.90;999.90;;;11.80;99.90;;;;;;5113817;28;20103;-82
2024/02/15 04:29:40;;;;;;;1999.90;999.90;;;11.80;99.90;;;;;;5096009;28;20024;-82
2024/02/15 04:32:10;;;;;;;1999.90;999.90;;;11.80;99.90;;;;;;5096134;28;20406;-82
2024/02/15 04:34:39;;;;;;;1999.90;999.90;;;11.80;99.90;;;;;;5096114;28;20450;-82
2024/02/15 04:37:08;;;;;;;1999.90;999.90;;;11.70;99.90;;;;;;5114131;28;20566;-84
2024/02/15 04:39:37;;;;;;;1999.90;999.90;;;11.70;99.90;;;;;;5114241;28;20015;-82
2024/02/15 04:42:09;;;;;;;1999.90;999.90;;;11.70;99.90;;;;;;5095721;28;20059;-84
2024/02/15 04:44:35;;;;;;;1999.90;999.90;;;11.60;99.90;;;;;;5114438;28;20086;-84
2024/02/15 04:47:03;;;;;;;1999.90;999.90;;;11.60;99.90;;;;;;5095668;28;20509;-84
2024/02/15 04:49:29;;;;;;;1999.90;999.90;;;11.60;99.90;;;;;;5095530;28;20028;-82
2024/02/15 04:51:57;;;;;;;1999.90;999.90;;;11.60;99.90;;;;;;5095521;28;20523;-82
2024/02/15 04:54:23;;;;;;;1999.90;999.90;;;11.70;99.90;;;;;;5113750;28;20099;-82
2024/02/15 04:56:52;;;;;;;1999.90;999.90;;;11.60;99.90;;;;;;5113871;28;20026;-82
2024/02/15 04:59:19;;;;;;;1999.90;999.90;;;11.70;99.90;;;;;;5095189;28;20012;-82
2024/02/15 05:01:45;;;;;;;1999.90;999.90;;;11.70;99.90;;;;;;5094836;28;20122;-82
2024/02/15 05:04:12;;;;;;;1999.90;999.90;;;11.70;99.90;;;;;;5113628;28;20112;-81
2024/02/15 05:06:38;;;;;;;1999.90;999.90;;;11.70;99.90;;;;;;5095326;28;20062;-84
2024/02/15 05:09:09;;;;;;;1999.90;999.90;;;11.70;99.90;;;;;;5095377;28;20020;-82
2024/02/15 05:11:46;;;;;;;1999.90;999.90;;;11.70;99.90;;;;;;5113623;28;20572;-84
2024/02/15 05:14:12;;;;;;;1999.90;999.90;;;11.70;99.90;;;;;;5095654;28;20497;-82
2024/02/15 05:16:42;;;;;;;1999.90;999.90;;;11.60;99.90;;;;;;5096074;28;20393;-82
2024/02/15 05:19:11;;;;;;;1999.90;999.90;;;11.60;99.90;;;;;;5113399;28;20022;-82
2024/02/15 05:21:37;;;;;;;1999.90;999.90;;;11.70;99.90;;;;;;5095757;28;20031;-82
2024/02/15 05:24:13;;;;;;;1999.90;999.90;;;11.70;99.90;;;;;;5095167;28;20028;-84
2024/02/15 05:26:42;;;;;;;1999.90;999.90;;;11.60;99.90;;;;;;5113212;28;20092;-82
2024/02/15 05:29:09;;;;;;;1999.90;999.90;;;11.70;99.90;;;;;;5095741;28;20073;-82
2024/02/15 05:31:37;;;;;;;1999.90;999.90;;;11.70;99.90;;;;;;5120385;28;20024;-82
2024/02/15 05:34:05;;;;;;;1999.90;999.90;;;11.70;99.90;;;;;;5139610;28;20000;-82
2024/02/15 05:36:31;;;;;;;1999.90;999.90;;;11.80;99.90;;;;;;5104643;28;20051;-82
2024/02/15 05:38:58;;;;;;;1999.90;999.90;;;11.70;99.90;;;;;;5094913;28;20109;-82
2024/02/15 05:41:24;;;;;;;1999.90;999.90;;;11.80;99.90;;;;;;5095056;28;20432;-83
2024/02/15 05:43:52;;;;;;;1999.90;999.90;;;11.80;99.90;;;;;;5094957;28;20482;-82
2024/02/15 05:46:17;;;;;;;1999.90;999.90;;;11.80;99.90;;;;;;5095132;28;20020;-82
2024/02/15 05:48:43;;;;;;;1999.90;999.90;;;11.80;99.90;;;;;;5094888;28;20389;-84
2024/02/15 05:51:09;;;;;;;1999.90;999.90;;;11.80;99.90;;;;;;5113102;28;20019;-84
2024/02/15 05:53:36;;;;;;;1999.90;999.90;;;11.80;99.90;;;;;;5094866;28;20023;-82
2024/02/15 05:56:08;;;;;;;1999.90;999.90;;;11.70;99.90;;;;;;5094744;28;20424;-83
2024/02/15 05:58:35;;;;;;;1999.90;999.90;;;11.70;99.90;;;;;;5113074;28;20019;-84
2024/02/15 06:01:02;;;;;;;1999.90;999.90;;;11.70;99.90;;;;;;5113302;28;20042;-82
2024/02/15 06:03:29;;;;;;;1999.90;999.90;;;11.70;99.90;;;;;;5099049;28;20098;-82
2024/02/15 06:06:02;;;;;;;1999.90;999.90;;;11.70;99.90;;;;;;5115998;28;20558;-82
2024/02/15 06:08:29;;;;;;;;;;;11.70;99.90;;;;;;5098312;28;20019;-82
2024/02/15 06:10:55;;;;;;;1999.90;999.90;;;11.60;99.90;;;;;;5095900;28;19903;-83
2024/02/15 06:13:22;;;;;;;1999.90;999.90;;;11.70;99.90;;;;;;5100037;28;20191;-84
2024/02/15 06:15:52;;;;;;;1999.90;999.90;;;11.70;99.90;;;;;;5118455;28;20015;-82
2024/02/15 06:18:21;;;;;;;1999.90;999.90;;;11.60;99.90;;;;;;5099074;28;20097;-83
2024/02/15 06:20:49;;;;;;;1999.90;999.90;;;11.60;99.90;;;;;;5099079;28;20026;-83
2024/02/15 06:23:16;;;;;;;1999.90;999.90;;;11.60;99.90;;;;;;5098352;28;20063;-83
2024/02/15 06:25:42;;;;;;;1999.90;999.90;;;11.60;99.90;;;;;;5098620;28;20103;-83
2024/02/15 06:28:19;;;;;;;1999.90;999.90;;;11.70;99.90;;;;;;5114591;28;20443;-83
2024/02/15 06:41:44;;;;;;;1999.90;999.90;;;11.60;99.90;;;;;;5116315;28;20034;-83
2024/02/15 06:44:10;;;;;;;1999.90;999.90;;;11.60;99.90;;;;;;5097900;28;20024;-82
2024/02/15 06:46:35;;;;;;;1999.90;999.90;;;11.60;99.90;;;;;;5097928;28;20035;-82
2024/02/15 06:49:02;;;;;;;1999.90;999.90;;;11.60;99.90;;;;;;5115988;28;20026;-83
2024/02/15 06:51:28;;;;;;;1999.90;999.90;;;11.60;99.90;;;;;;5117057;28;20019;-84
2024/02/15 06:53:55;;;;;;;1999.90;999.90;;;11.60;99.90;;;;;;5098353;28;20027;-82
2024/02/15 06:56:21;;;;;;;1999.90;999.90;;;11.50;99.90;;;;;;5097016;28;20417;-83
2024/02/15 06:58:48;;;;;;;1999.90;999.90;;;11.50;99.90;;;;;;5097587;28;20012;-83
2024/02/15 07:01:16;;;;;;;1999.90;999.90;;;11.50;99.90;;;;;;5097655;28;20047;-83
2024/02/15 07:03:45;;;;;;;1999.90;999.90;;;11.50;99.90;;;;;;5089653;28;20029;-84
2024/02/15 07:06:13;;;;;;;1999.90;999.90;;;11.40;99.90;;;;;;5096411;28;20101;-82
2024/02/15 07:08:40;;;;;;;1999.90;999.90;;;11.40;99.90;;;;;;5114996;28;20111;-82
2024/02/15 07:11:09;;;;;;;1999.90;999.90;;;11.40;99.90;;;;;;5115643;28;20077;-82
2024/02/15 07:13:35;;;;;;;1999.90;999.90;;;11.40;99.90;;;;;;5115116;27;20027;-83
2024/02/15 07:16:01;;;;;;;1999.90;999.90;;;11.50;99.90;;;;;;5113673;28;20073;-82
2024/02/15 07:18:27;;;;;;;1999.90;999.90;;;11.60;99.90;;;;;;5115071;28;20027;-83
2024/02/15 07:20:53;;;;;;;1999.90;999.90;;;11.60;99.90;;;;;;5094408;28;20497;-82
2024/02/15 07:23:18;;;;;;;1999.90;999.90;;;11.60;99.90;;;;;;5111610;28;20027;-82
2024/02/15 07:25:48;;;;;;;1999.90;999.90;;;11.60;99.90;;;;;;5096184;28;20035;-82
2024/02/15 07:28:14;;;;;;;1999.90;999.90;;;11.60;99.90;;;;;;5093310;28;20031;-83
2024/02/15 07:30:39;;;;;;;1999.90;999.90;;;11.60;99.90;;;;;;5108925;28;20035;-82
2024/02/15 07:33:06;;;;;;;1999.90;999.90;;;11.60;99.90;;;;;;5100609;28;20039;-83
2024/02/15 07:35:33;;;;;;;1999.90;999.90;;;11.60;99.90;;;;;;5123108;27;20019;-83
2024/02/15 07:38:00;;;;;;;1999.90;999.90;;;11.60;99.90;;;;;;5096212;28;20068;-83
2024/02/15 07:40:28;;;;;;;1999.90;999.90;;;11.70;99.90;;;;;;5091693;28;20481;-75
2024/02/15 07:42:58;;;;;;;1999.90;999.90;;;11.70;99.90;;;;;;5102506;28;20024;-77
2024/02/15 07:45:24;;;;;;;1999.90;999.90;;;11.60;99.90;;;;;;5106403;28;20148;-77
2024/02/15 07:47:49;;;;;;;1999.90;999.90;;;11.70;99.90;;;;;;5108673;28;20148;-77
2024/02/15 07:50:22;;;;;;;1999.90;999.90;;;11.70;99.90;;;;;;5088166;28;20083;-77
2024/02/15 07:52:49;;;;;;;1999.90;999.90;;;11.70;99.90;;;;;;5083188;28;20031;-78
2024/02/15 07:55:15;;;;;;;1999.90;999.90;;;11.80;99.90;;;;;;5110652;27;20393;-79
2024/02/15 07:57:40;;;;;;;1999.90;999.90;;;11.80;99.90;;;;;;5102317;28;20102;-77
2024/02/15 08:00:11;;;;;;;1999.90;999.90;;;11.90;99.90;;;;;;5109284;28;20035;-79
2024/02/15 08:02:43;;;;;;;1999.90;999.90;;;12.00;99.90;;;;;;5087331;28;20023;-77
2024/02/15 08:05:12;;;;;;;1999.90;999.90;;;12.10;99.90;;;;;;5105670;28;20130;-77
2024/02/15 08:07:43;;;;;;;1999.90;999.90;;;12.10;99.90;;;;;;5105353;28;20086;-78
2024/02/15 08:10:12;;;;;;;1999.90;999.90;;;12.20;99.90;;;;;;5099900;28;20089;-76
2024/02/15 08:12:42;;;;;;;1999.90;999.90;;;12.30;99.90;;;;;;5116939;27;20118;-77
2024/02/15 08:15:11;;;;;;;1999.90;999.90;;;12.30;99.90;;;;;;5096516;28;20031;-76
2024/02/15 08:17:42;;;;;;;1999.90;999.90;;;12.30;99.90;;;;;;5084615;28;20240;-76
2024/02/15 08:20:10;;;;;;;1999.90;999.90;;;12.40;99.90;;;;;;5079338;28;20031;-76
2024/02/15 08:22:39;;;;;;;1999.90;999.90;;;12.60;99.90;;;;;;5079077;28;20445;-77
2024/02/15 08:25:10;;;;;;;1999.90;999.90;;;12.90;99.90;;;;;;5104591;28;20035;-77
2024/02/15 08:27:45;;;;;;;1999.90;999.90;;;12.90;99.90;;;;;;5078975;28;20065;-79
2024/02/15 08:30:12;;;;;;;1999.90;999.90;;;13.70;99.90;;;;;;5089299;28;20043;-76
2024/02/15 08:32:41;;;;;;;1999.90;999.90;;;14.30;99.90;;;;;;5078887;28;20031;-78
2024/02/15 08:35:16;;;;;;;1999.90;999.90;;;14.10;99.90;;;;;;5106980;28;20031;-76
2024/02/15 08:37:43;;;;;;;1999.90;999.90;;;14.50;99.90;;;;;;5106619;28;20091;-76
2024/02/15 08:40:11;;;;;;;1999.90;999.90;;;14.10;99.90;;;;;;5130343;28;20031;-76
2024/02/15 08:42:41;;;;;;;1999.90;999.90;;;13.80;99.90;;;;;;5100447;28;20138;-76
2024/02/15 08:45:10;;;;;;;1999.90;999.90;;;13.90;99.90;;;;;;5094567;28;20032;-76
2024/02/15 08:47:37;;;;;;;1999.90;999.90;;;14.00;99.90;;;;;;5102974;28;20036;-78
2024/02/15 08:50:04;;;;;;;1999.90;999.90;;;14.20;99.90;;;;;;5098631;28;20051;-75
2024/02/15 08:52:30;;;;;;;1999.90;999.90;;;14.40;99.90;;;;;;5110651;28;20023;-77
2024/02/15 08:54:57;;;;;;;1999.90;999.90;;;14.40;99.90;;;;;;5086023;28;20061;-78
2024/02/15 08:57:23;;;;;;;1999.90;999.90;;;14.30;99.90;;;;;;5110974;28;20038;-77
2024/02/15 08:59:51;;;;;;;1999.90;999.90;;;14.30;99.90;;;;;;5081525;28;20024;-75
2024/02/15 09:02:17;;;;;;;1999.90;999.90;;;14.10;99.90;;;;;;5105949;28;20567;-77
2024/02/15 09:04:43;;;;;;;1999.90;999.90;;;13.90;99.90;;;;;;5101176;28;20044;-76
2024/02/15 09:07:09;;;;;;;1999.90;999.90;;;13.90;99.90;;;;;;5103795;28;20619;-75
2024/02/15 09:09:36;;;;;;;1999.90;999.90;;;13.80;99.90;;;;;;5108739;28;20028;-78
2024/02/15 09:12:06;;;;;;;1999.90;999.90;;;13.70;99.90;;;;;;5108609;28;20350;-76
2024/02/15 09:14:38;;;;;;;1999.90;999.90;;;13.70;99.90;;;;;;5088930;28;20027;-78
2024/02/15 09:17:07;;;;;;;1999.90;999.90;;;13.90;99.90;;;;;;5086150;28;20053;-77
2024/02/15 09:19:36;;;;;;;1999.90;999.90;;;14.30;99.90;;;;;;5099261;28;20181;-77
2024/02/15 09:22:06;;;;;;;1999.90;999.90;;;14.50;99.90;;;;;;5110053;28;20031;-76
2024/02/15 09:24:33;;;;;;;1999.90;999.90;;;14.40;99.90;;;;;;5082924;28;20043;-76
2024/02/15 09:27:02;;;;;;;1999.90;999.90;;;14.40;99.90;;;;;;5106617;28;20378;-76
2024/02/15 09:29:32;;;;;;;1999.90;999.90;;;14.40;99.90;;;;;;5111500;28;20070;-77
2024/02/15 09:31:58;;;;;;;1999.90;999.90;;;14.40;99.90;;;;;;5089376;28;20455;-75
2024/02/15 09:34:24;;;;;;;1999.90;999.90;;;14.70;99.90;;;;;;5105483;28;20023;-75
2024/02/15 09:36:50;;;;;;;1999.90;999.90;;;14.90;99.90;;;;;;5086370;28;20399;-76
2024/02/15 09:39:17;;;;;;;1999.90;999.90;;;15.30;99.90;;;;;;5108661;28;20026;-75
2024/02/15 09:41:43;;;;;;;1999.90;999.90;;;15.70;99.90;;;;;;5102284;28;20023;-76
2024/02/15 09:44:10;;;;;;;1999.90;999.90;;;15.90;99.90;;;;;;5107219;28;20110;-77
2024/02/15 09:46:41;;;;;;;1999.90;999.90;;;15.60;99.90;;;;;;5091188;28;20565;-77
2024/02/15 09:49:07;;;;;;;1999.90;999.90;;;15.20;99.90;;;;;;5092440;28;20035;-78
2024/02/15 09:51:33;;;;;;;1999.90;999.90;;;15.30;99.90;;;;;;5116964;27;20035;-77
2024/02/15 09:54:00;;;;;;;1999.90;999.90;;;15.30;99.90;;;;;;5085914;28;20023;-76
2024/02/15 09:56:28;;;;;;;1999.90;999.90;;;15.30;99.90;;;;;;5100284;27;20024;-76
2024/02/15 09:58:54;;;;;;;1999.90;999.90;;;15.30;99.90;;;;;;5112021;27;20095;-76
2024/02/15 10:01:23;;;;;;;1999.90;999.90;;;15.20;99.90;;;;;;5095999;28;20451;-77
2024/02/15 10:03:52;;;;;;;1999.90;999.90;;;15.20;99.90;;;;;;5100122;28;20039;-76
2024/02/15 10:06:19;;;;;;;1999.90;999.90;;;15.20;99.90;;;;;;5110237;28;20057;-75
2024/02/15 10:08:46;;;;;;;1999.90;999.90;;;15.20;99.90;;;;;;5111258;27;20027;-76
2024/02/15 10:11:12;;;;;;;1999.90;999.90;;;15.00;99.90;;;;;;5114614;28;20024;-76
2024/02/15 10:13:39;;;;;;;1999.90;999.90;;;14.90;99.90;;;;;;5112472;28;20118;-76
2024/02/15 10:16:19;;;;;;;1999.90;999.90;;;14.90;99.90;;;;;;5111754;28;20077;-78
2024/02/15 10:18:48;;;;;;;1999.90;999.90;;;15.00;99.90;;;;;;5084586;28;20097;-76
2024/02/15 10:21:31;;;;;;;1999.90;999.90;;;15.20;99.90;;;;;;5084921;28;20032;-76
2024/02/15 10:24:08;;;;;;;1999.90;999.90;;;15.10;99.90;;;;;;5108864;28;20382;-76
2024/02/15 10:26:35;;;;;;;1999.90;999.90;;;15.20;99.90;;;;;;5095463;28;20122;-78
2024/02/15 10:29:11;;;;;;;1999.90;999.90;;;15.20;99.90;;;;;;5105908;28;20507;-77
2024/02/15 10:31:41;;;;;;;1999.90;999.90;;;15.30;99.90;;;;;;5110493;28;20027;-80
2024/02/15 10:34:08;;;;;;;1999.90;999.90;;;15.30;99.90;;;;;;5088020;28;20502;-78
2024/02/15 10:36:34;;;;;;;1999.90;999.90;;;15.40;99.90;;;;;;5101679;28;20065;-77
2024/02/15 10:39:16;;;;;;;1999.90;999.90;;;15.40;99.90;;;;;;5111363;28;20031;-77
2024/02/15 10:41:47;;;;;;;1999.90;999.90;;;15.40;99.90;;;;;;5100306;28;20039;-77
2024/02/15 10:44:18;;;;;;;1999.90;999.90;;;15.40;99.90;;;;;;5087665;28;20076;-77
2024/02/15 10:46:46;;;;;;;1999.90;999.90;;;15.30;99.90;;;;;;5106916;28;20027;-76
2024/02/15 10:49:13;;;;;;;1999.90;999.90;;;15.10;99.90;;;;;;5111725;28;20027;-75
2024/02/15 10:51:43;;;;;;;1999.90;999.90;;;15.00;99.90;;;;;;5096157;28;20168;-75
2024/02/15 10:54:14;;;;;;;1999.90;999.90;;;14.90;99.90;;;;;;5107778;27;20035;-75
2024/02/15 10:56:46;;;;;;;1999.90;999.90;;;14.90;99.90;;;;;;5094740;28;20057;-75
2024/02/15 10:59:20;;;;;;;1999.90;999.90;;;15.00;99.90;;;;;;5106881;28;20551;-76
2024/02/15 11:01:50;;;;;;;1999.90;999.90;;;15.10;99.90;;;;;;5094213;28;20032;-78
2024/02/15 11:04:19;;;;;;;1999.90;999.90;;;15.30;99.90;;;;;;5084101;28;20102;-77
2024/02/15 11:06:45;;;;;;;1999.90;999.90;;;15.50;99.90;;;;;;5099060;28;20046;-77
2024/02/15 11:09:11;;;;;;;1999.90;999.90;;;15.60;99.90;;;;;;5093716;28;20174;-77
2024/02/15 11:11:41;;;;;;;1999.90;999.90;;;15.80;99.90;;;;;;5103476;28;20081;-77
2024/02/15 11:14:28;;;;;;;1999.90;999.90;;;15.90;99.90;;;;;;5103392;28;20035;-76
2024/02/15 11:16:56;;;;;;;1999.90;999.90;;;15.80;99.90;;;;;;5103203;28;20020;-76
2024/02/15 11:19:46;;;;;;;1999.90;999.90;;;15.80;99.90;;;;;;5111156;28;20027;-76
2024/02/15 11:22:16;;;;;;;1999.90;999.90;;;15.70;99.90;;;;;;5099120;27;20081;-78
2024/02/15 11:24:48;;;;;;;1999.90;999.90;;;15.60;99.90;;;;;;5094823;28;20028;-76
2024/02/15 11:27:27;;;;;;;1999.90;999.90;;;15.70;99.90;;;;;;5104430;28;20031;-76
2024/02/15 11:29:58;;;;;;;1999.90;999.90;;;15.80;99.90;;;;;;5104583;28;20044;-76
2024/02/15 11:32:47;;;;;;;1999.90;999.90;;;15.80;99.90;;;;;;5095694;28;20097;-77
2024/02/15 11:35:17;;;;;;;1999.90;999.90;;;15.90;99.90;;;;;;5106989;28;20024;-75
2024/02/15 11:40:22;;;;;;;1999.90;999.90;;;16.30;99.90;;;;;;5105645;28;20035;-75
2024/02/15 11:42:49;;;;;;;1999.90;999.90;;;16.70;99.90;;;;;;5101517;28;20038;-75
2024/02/15 11:45:19;;;;;;;1999.90;999.90;;;16.80;99.90;;;;;;5104144;28;20111;-78
2024/02/15 11:47:51;;;;;;;1999.90;999.90;;;16.80;99.90;;;;;;5088108;28;20035;-78
2024/02/15 11:50:21;;;;;;;1999.90;999.90;;;16.70;99.90;;;;;;5105938;28;20081;-76
2024/02/15 11:52:51;;;;;;;1999.90;999.90;;;16.50;99.90;;;;;;5108271;28;20115;-76
2024/02/15 11:55:21;;;;;;;1999.90;999.90;;;16.50;99.90;;;;;;5081149;28;20490;-78
2024/02/15 12:20:13;;;;;;;1999.90;999.90;;;17.00;99.90;;;;;;5092048;28;20832;-75
2024/02/15 12:22:47;;;;;;;1999.90;999.90;;;17.20;99.90;;;;;;5097221;28;20028;-78
2024/02/15 12:25:17;;;;;;;1999.90;999.90;;;17.30;99.90;;;;;;5094975;28;20042;-78
2024/02/15 12:27:46;;;;;;;1999.90;999.90;;;17.30;99.90;;;;;;5092463;28;20023;-77
2024/02/15 12:30:22;;;;;;;1999.90;999.90;;;17.40;99.90;;;;;;5095273;28;20027;-78
2024/02/15 12:32:50;;;;;;;1999.90;999.90;;;17.30;99.90;;;;;;5089986;28;20142;-77
2024/02/15 12:35:20;;;;;;;1999.90;999.90;;;17.20;99.90;;;;;;5093997;28;20019;-75
2024/02/15 12:38:08;;;;;;;1999.90;999.90;;;17.30;99.90;;;;;;5072530;28;20035;-74
2024/02/15 12:40:37;;;;;;;1999.90;999.90;;;17.30;99.90;;;;;;5091814;28;20028;-76
2024/02/15 12:43:07;;;;;;;1999.90;999.90;;;17.30;99.90;;;;;;5094330;28;20402;-74